Skiathos Island National Airport

LGSK | JSI

Skiathos , Thessaly , Greece

Saturday, September 21st, 2019 | 14:52

Weather

LGSK 211050Z 04008KT 9999 FEW010 BKN025 21/12 Q1024

Charts

1 Available

Gates

9 Available

Runways

1 Available

Events

No events for this airport


New event